CYCX

CFB Gagetown Heliport

Gagetown, New Brunswick, Canada
METAR CYCX 152200Z 21005KT 12SM -TSRA BKN020 BKN050 20/18 A2978 RMK SC5SC2 DA1183FT CB EMBD MOVG E OCNL DIST LTNG S LTNG DTCTRS REP STRIKES 8 NM S SLP085
Observed Flight Rules
Aug-15 @ 22:00 UTC (27 minutes ago) Marginal Visual Flight Rules
Wind Visibility Clouds Conditions
210° at 5 knots 12 miles
  • Broken at 2,000' AGL
  • Broken at 5,000' AGL
  • Light Thunderstorm
  • Light Rain
Temperatures Readings
Current 20°C / 68°F
Dewpoint 18°C / 64°F
Humidity 88%
Altimeter 29.78" Hg
Pressure 1008.5 hPa
Elevation 51
METAR CYCX 152200Z 21005KT 12SM -TSRA BKN020 BKN050 20/18 A2978 RMK SC5SC2 DA1183FT CB EMBD MOVG E OCNL DIST LTNG S LTNG DTCTRS REP STRIKES 8 NM S SLP085
Observed Flight Rules
Aug-15 @ 22:00 UTC
(27 minutes ago)
MVFR
Wind Visibility
210° at 5 knots 12 miles
Clouds
  • Broken at 2,000' AGL
  • Broken at 5,000' AGL
Conditions
  • Light Thunderstorm
  • Light Rain
Temperature Dewpoint
20°C / 68°F 18°C / 64°F
Humidity Altimeter Pressure
88% 29.78" Hg 1008.5 hPa